tititudorancea.com
Station Historical Data
Daily Summary for February 4, 2018 Units:  Metric    English   Both
« Previous Day
Next Day »
Daily Weekly Monthly Yearly Custom
  High: Low: Average:
Temperature: -17.8 °C 12.9 °C 21.8 °C
Dew Point: -17.8 °C 4.9 °C 10.8 °C
Humidity: Humidity % 20 % 57 %
Wind Speed: 0 km/h 0 km/h 7.2 km/h
Wind Gust: 0 km/h - -
Wind:- - SSW
Pressure: 0 hPa 1016.8 hPa -
Precipitation: 0 mm    
Historical Graphs
 
 
Ararat weather Find more about Weather in Ararat, AU


 



 


Tabular Data for February 4, 2018
Time Temperature Dew Point Pressure Wind Wind Speed Wind Gust Humidity Rainfall Rate (Hourly)
-17.8 °C -17.8 °C 0 hPa Calm     Humidity % 0 mm
00:03 16.9 °C 13.1 °C 1020.9 hPa South 7.2 km/h 11.3 km/h 78 % 0 mm
00:08 16.8 °C 13.2 °C 1020.9 hPa South 8.2 km/h 9.3 km/h 79 % 0 mm
00:13 16.7 °C 13.1 °C 1020.9 hPa South 8.9 km/h 13 km/h 79 % 0 mm
00:18 16.6 °C 13.2 °C 1020.9 hPa South 8.5 km/h 14.8 km/h 80 % 0 mm
00:23 16.5 °C 13.1 °C 1020.9 hPa South 12.2 km/h 16.7 km/h 80 % 0 mm
00:28 16.4 °C 13 °C 1020.9 hPa South 12.1 km/h 16.7 km/h 80 % 0 mm
00:33 16.3 °C 13.1 °C 1020.9 hPa South 9.5 km/h 14.8 km/h 81 % 0 mm
00:38 16.3 °C 13 °C 1020.9 hPa SSW 10.5 km/h 18.5 km/h 81 % 0 mm
00:43 16.2 °C 13.1 °C 1020.9 hPa North 8.9 km/h 18.5 km/h 82 % 0 mm
00:48 16.1 °C 13.1 °C 1020.9 hPa South 10.1 km/h 14.8 km/h 82 % 0 mm
00:53 16.1 °C 13 °C 1020.9 hPa South 6 km/h 9.7 km/h 82 % 0 mm
00:58 16 °C 13.1 °C 1020.5 hPa South 9.7 km/h 13 km/h 83 % 0 mm
01:03 15.9 °C 13 °C 1020.9 hPa South 8 km/h 11.3 km/h 83 % 0 mm
01:08 15.8 °C 13.1 °C 1020.9 hPa South 7.4 km/h 13 km/h 84 % 0 mm
01:13 15.8 °C 13.1 °C 1020.9 hPa North 5.8 km/h 9.3 km/h 84 % 0 mm
01:18 15.7 °C 13 °C 1020.9 hPa South 6.4 km/h 11.3 km/h 84 % 0 mm
01:23 15.7 °C 13.2 °C 1020.9 hPa South 6.8 km/h 11.1 km/h 85 % 0 mm
01:28 15.6 °C 13.1 °C 1020.5 hPa South 7.6 km/h 9.7 km/h 85 % 0 mm
01:33 15.6 °C 13.1 °C 1020.5 hPa North 7.2 km/h 9.3 km/h 85 % 0 mm
01:38 15.5 °C 13 °C 1020.5 hPa North 6.8 km/h 13 km/h 85 % 0 mm
01:43 15.4 °C 13.1 °C 1020.5 hPa South 5 km/h 11.1 km/h 86 % 0 mm
01:48 15.4 °C 13.1 °C 1020.5 hPa South 7.7 km/h 11.3 km/h 86 % 0 mm
01:53 15.4 °C 13.2 °C 1020.5 hPa South 10.1 km/h 13 km/h 87 % 0 mm
01:58 15.4 °C 13.2 °C 1020.5 hPa South 9 km/h 11.3 km/h 87 % 0 mm
02:03 15.3 °C 13.2 °C 1020.5 hPa South 8.5 km/h 13 km/h 87 % 0 mm
02:08 15.3 °C 13.1 °C 1020.2 hPa South 9.5 km/h 14.8 km/h 87 % 0 mm
02:13 15.2 °C 13.1 °C 1020.2 hPa South 7.7 km/h 11.1 km/h 87 % 0 mm
02:18 15.2 °C 13.2 °C 1020.2 hPa South 7.6 km/h 14.8 km/h 88 % 0 mm
02:23 15.1 °C 13.1 °C 1019.9 hPa North 7.7 km/h 11.3 km/h 88 % 0 mm
02:28 15.1 °C 13.1 °C 1019.9 hPa South 10.8 km/h 12.9 km/h 88 % 0 mm
02:33 15.1 °C 13.1 °C 1019.9 hPa SSW 10.1 km/h 18.5 km/h 88 % 0 mm
02:38 15.1 °C 13.1 °C 1019.9 hPa North 4.8 km/h 11.1 km/h 88 % 0 mm
02:43 15 °C 13 °C 1019.9 hPa North 7.6 km/h 11.3 km/h 88 % 0 mm
02:48 15 °C 13.2 °C 1019.9 hPa South 8.5 km/h 9.3 km/h 89 % 0 mm
02:53 14.9 °C 13.2 °C 1019.9 hPa SSW 10.6 km/h 13 km/h 89 % 0 mm
02:58 14.9 °C 13.2 °C 1019.9 hPa SSW 11.9 km/h 14.5 km/h 89 % 0 mm
03:03 14.9 °C 13.2 °C 1019.9 hPa SSW 6.8 km/h 11.1 km/h 89 % 0 mm
03:08 15 °C 13.2 °C 1019.9 hPa SSW 8.2 km/h 11.1 km/h 89 % 0 mm
03:13 15 °C 13.2 °C 1019.9 hPa SSW 14.2 km/h 18.5 km/h 89 % 0 mm
03:15 15 °C 13.2 °C 1019.9 hPa SSW 8.7 km/h 18.5 km/h 89 % 0 mm
03:20 15.1 °C 13.3 °C 1019.9 hPa South 11.4 km/h 14.8 km/h 89 % 0 mm
03:25 15 °C 13 °C 1020.2 hPa North 6 km/h 13 km/h 88 % 0 mm
03:30 14.9 °C 12.9 °C 1020.2 hPa SSW 12.1 km/h 13 km/h 88 % 0 mm
03:35 14.8 °C 13.1 °C 1020.2 hPa SSW 10.9 km/h 16.1 km/h 89 % 0 mm
03:40 14.7 °C 12.7 °C 1020.2 hPa SSW 9.2 km/h 13 km/h 88 % 0 mm
03:45 14.5 °C 12.7 °C 1020.2 hPa North 5 km/h 9.3 km/h 89 % 0 mm
03:50 14.5 °C 12.7 °C 1020.2 hPa SSW 7.6 km/h 12.9 km/h 89 % 0 mm
03:55 14.4 °C 12.6 °C 1020.2 hPa SSW 10.9 km/h 13 km/h 89 % 0 mm
04:00 14.3 °C 12.7 °C 1020.2 hPa SSW 10.8 km/h 14.5 km/h 90 % 0 mm
04:05 14.3 °C 12.7 °C 1020.2 hPa SSW 9.7 km/h 14.8 km/h 90 % 0 mm
04:10 14.3 °C 12.7 °C 1020.2 hPa North 11.1 km/h 14.8 km/h 90 % 0 mm
04:15 14.2 °C 12.6 °C 1020.2 hPa SSW 9.7 km/h 13 km/h 90 % 0 mm
04:20 14.3 °C 12.8 °C 1020.2 hPa SSW 9.3 km/h 14.8 km/h 91 % 0 mm
04:25 14.3 °C 12.7 °C 1020.2 hPa SSW 6.8 km/h 11.1 km/h 90 % 0 mm
04:30 14.4 °C 12.8 °C 1020.2 hPa North 7.7 km/h 13 km/h 90 % 0 mm
04:35 14.2 °C 12.6 °C 1020.2 hPa North 7.7 km/h 11.3 km/h 90 % 0 mm
04:40 14.1 °C 12.4 °C 1020.2 hPa SSW 8.2 km/h 9.3 km/h 90 % 0 mm
04:45 14 °C 12.6 °C 1020.2 hPa North 8.7 km/h 13 km/h 91 % 0 mm
04:50 14.1 °C 12.7 °C 1020.5 hPa North 7.4 km/h 11.1 km/h 91 % 0 mm
04:55 14.1 °C 12.7 °C 1020.5 hPa SSW 9 km/h 13 km/h 91 % 0 mm
05:00 14.1 °C 12.7 °C 1020.2 hPa SSW 6.6 km/h 9.3 km/h 91 % 0 mm
05:05 14 °C 12.6 °C 1020.2 hPa SSW 5.1 km/h 5.6 km/h 91 % 0 mm
05:10 14.1 °C 12.8 °C 1020.2 hPa SSW 6.9 km/h 11.1 km/h 92 % 0 mm
05:15 14.1 °C 12.8 °C 1020.5 hPa North 6.1 km/h 9.7 km/h 92 % 0 mm
05:20 14.1 °C 12.7 °C 1020.5 hPa SSW 2.7 km/h 5.6 km/h 91 % 0 mm
05:25 14.1 °C 12.8 °C 1020.5 hPa SSW 6.4 km/h 11.1 km/h 92 % 0 mm
05:30 14.1 °C 12.8 °C 1020.5 hPa SSW 4.7 km/h 7.4 km/h 92 % 0 mm
05:35 14.1 °C 12.8 °C 1020.5 hPa North 3.7 km/h 5.6 km/h 92 % 0 mm
05:40 14 °C 12.6 °C 1020.5 hPa North 3.9 km/h 5.6 km/h 91 % 0 mm
05:45 13.9 °C 12.4 °C 1020.5 hPa SSW 4.3 km/h 5.6 km/h 91 % 0 mm
05:50 13.8 °C 12.4 °C 1020.5 hPa SSW 1.3 km/h 3.7 km/h 91 % 0 mm
05:55 13.8 °C 12.3 °C 1020.5 hPa SSW 2.1 km/h 3.7 km/h 91 % 0 mm
06:00 13.8 °C 12.5 °C 1020.5 hPa SSW 6.1 km/h 9.3 km/h 92 % 0 mm
06:05 13.8 °C 12.5 °C 1020.5 hPa SSW 5.5 km/h 11.1 km/h 92 % 0 mm
06:10 13.8 °C 12.5 °C 1020.9 hPa North 6.3 km/h 11.1 km/h 92 % 0 mm
06:15 13.7 °C 12.4 °C 1020.9 hPa SSW 5.3 km/h 8 km/h 92 % 0 mm
06:20 13.7 °C 12.4 °C 1020.9 hPa North 3.4 km/h 5.6 km/h 92 % 0 mm
06:25 13.6 °C 12.3 °C 1020.9 hPa SSW 4.7 km/h 7.4 km/h 92 % 0 mm
06:30 13.4 °C 12.2 °C 1020.9 hPa SSW 2.3 km/h 5.6 km/h 92 % 0 mm
06:35 13.3 °C 12 °C 1020.9 hPa SSW 4.7 km/h 5.6 km/h 92 % 0 mm
06:40 13.2 °C 11.9 °C 1021.2 hPa North 6.6 km/h 9.3 km/h 92 % 0 mm
06:45 13.1 °C 11.8 °C 1021.2 hPa North 1.9 km/h 3.7 km/h 92 % 0 mm
06:50 13 °C 11.7 °C 1021.2 hPa North 1.9 km/h 3.7 km/h 92 % 0 mm
06:55 12.9 °C 11.8 °C 1021.2 hPa SSW 3.7 km/h 5.6 km/h 93 % 0 mm
07:00 12.9 °C 11.8 °C 1021.2 hPa North 2.6 km/h 3.7 km/h 93 % 0 mm
07:05 12.9 °C 11.8 °C 1021.2 hPa SSW 5.6 km/h 7.4 km/h 93 % 0 mm
07:10 12.9 °C 11.8 °C 1021.2 hPa North 3.7 km/h 5.6 km/h 93 % 0 mm
07:15 12.9 °C 11.8 °C 1021.2 hPa North 6 km/h 6.4 km/h 93 % 0 mm
07:20 13.1 °C 12.1 °C 1021.2 hPa North 5 km/h 5.6 km/h 94 % 0 mm
07:25 13.2 °C 12.2 °C 1021.2 hPa SSW 3.1 km/h 5.6 km/h 94 % 0 mm
07:30 13.2 °C 12.3 °C 1021.2 hPa SSW 2.4 km/h 5.6 km/h 94 % 0 mm
07:35 13.3 °C 12.4 °C 1021.2 hPa North 3.5 km/h 5.6 km/h 94 % 0 mm
07:40 13.4 °C 12.5 °C 1021.6 hPa Calm   1.9 km/h 94 % 0 mm
07:45 13.6 °C 12.7 °C 1021.6 hPa SSW 5 km/h 5.6 km/h 94 % 0 mm
07:50 13.7 °C 12.8 °C 1021.6 hPa SSW 4.2 km/h 5.6 km/h 94 % 0 mm
07:55 13.8 °C 12.7 °C 1021.6 hPa SSW 6.8 km/h 9.3 km/h 93 % 0 mm
08:00 14 °C 12.7 °C 1021.9 hPa SSW 7.2 km/h 11.1 km/h 92 % 0 mm
08:05 14.2 °C 12.9 °C 1021.9 hPa North 3.2 km/h 5.6 km/h 92 % 0 mm
08:10 14.5 °C 13.1 °C 1021.9 hPa SSW 3.9 km/h 5.6 km/h 91 % 0 mm
08:15 14.7 °C 13.1 °C 1021.9 hPa SSW 5.6 km/h 5.6 km/h 90 % 0 mm
08:22 15 °C 13.2 °C 1021.9 hPa SSW 6.1 km/h 11.1 km/h 89 % 0 mm
08:27 15.2 °C 13.2 °C 1021.9 hPa SSW 6.6 km/h 7.4 km/h 88 % 0 mm
08:32 15.5 °C 13.3 °C 1022.2 hPa SSW 8.4 km/h 9.3 km/h 87 % 0 mm
08:37 15.7 °C 13.3 °C 1022.2 hPa SSW 3.2 km/h 7.4 km/h 86 % 0 mm
08:42 15.9 °C 13.6 °C 1022.2 hPa SSW 7.7 km/h 8 km/h 86 % 0 mm
08:47 16 °C 13.5 °C 1022.2 hPa SSW 6 km/h 9.3 km/h 85 % 0 mm
08:52 16.1 °C 13.4 °C 1022.2 hPa SSW 6.1 km/h 11.1 km/h 84 % 0 mm
08:57 16.3 °C 13.6 °C 1022.2 hPa SSW 4.5 km/h 8 km/h 84 % 0 mm
09:02 16.5 °C 13.6 °C 1022.2 hPa SSW 5.3 km/h 9.3 km/h 83 % 0 mm
09:07 16.8 °C 13.9 °C 1022.2 hPa SSW 3.1 km/h 5.6 km/h 83 % 0 mm
09:12 17.2 °C 13.9 °C 1022.2 hPa SSW 7.1 km/h 7.4 km/h 81 % 0 mm
09:17 17.5 °C 13.8 °C 1022.2 hPa SSW 5 km/h 6.4 km/h 79 % 0 mm
09:22 17.6 °C 13.9 °C 1022.2 hPa SSW 4.7 km/h 7.4 km/h 79 % 0 mm
09:27 18 °C 14.1 °C 1022.2 hPa SSW 2.7 km/h 5.6 km/h 78 % 0 mm
09:32 18.3 °C 14.2 °C 1022.2 hPa SSW 8.7 km/h 9.3 km/h 77 % 0 mm
09:37 18.7 °C 14.3 °C 1022.2 hPa SSW 4.5 km/h 7.4 km/h 76 % 0 mm
09:42 19.2 °C 14.5 °C 1022.2 hPa SSW 5.5 km/h 9.3 km/h 74 % 0 mm
09:47 19.6 °C 14.2 °C 1022.2 hPa SSW 4.2 km/h 9.3 km/h 71 % 0 mm
09:52 19.9 °C 14.1 °C 1022.2 hPa South 3.1 km/h 8 km/h 69 % 0 mm
09:57 20.1 °C 14 °C 1022.2 hPa Calm   3.7 km/h 68 % 0 mm
10:03 20.4 °C 14.1 °C 1022.2 hPa South 0.3 km/h 5.6 km/h 67 % 0 mm
10:08 20.8 °C 13.9 °C 1021.9 hPa SSW 3.5 km/h 5.6 km/h 65 % 0 mm
10:13 21.1 °C 13.5 °C 1021.9 hPa SSW 4.5 km/h 8 km/h 62 % 0 mm
10:18 21.2 °C 13.9 °C 1021.9 hPa SSW 4.2 km/h 7.4 km/h 63 % 0 mm
10:23 21.3 °C 13.2 °C 1021.9 hPa SSW 0.6 km/h 5.6 km/h 60 % 0 mm
10:28 21.8 °C 13.2 °C 1021.9 hPa South 0.2 km/h 1.9 km/h 58 % 0 mm
10:33 22.5 °C 12.7 °C 1021.9 hPa South 2.6 km/h 5.6 km/h 54 % 0 mm
10:38 23.5 °C 12.8 °C 1021.9 hPa SSW 1.9 km/h 5.6 km/h 51 % 0 mm
10:43 24.3 °C 12.2 °C 1021.9 hPa South 5.6 km/h 9.3 km/h 47 % 0 mm
10:48 24.8 °C 12.1 °C 1021.9 hPa South 3.4 km/h 5.6 km/h 45 % 0 mm
10:53 25.1 °C 12 °C 1021.9 hPa South 2.1 km/h 3.7 km/h 44 % 0 mm
10:58 25.5 °C 11.7 °C 1021.9 hPa South 2.6 km/h 6.4 km/h 42 % 0 mm
11:03 25.5 °C 10.9 °C 1021.6 hPa South 2.7 km/h 5.6 km/h 40 % 0 mm
11:08 24.9 °C 10.8 °C 1021.6 hPa South 3.1 km/h 6.4 km/h 41 % 0 mm
11:13 24.8 °C 11.1 °C 1021.6 hPa South 5.6 km/h 5.6 km/h 42 % 0 mm
11:18 24.8 °C 11.3 °C 1021.6 hPa South 2.7 km/h 6.4 km/h 43 % 0 mm
11:23 25.1 °C 10.9 °C 1021.6 hPa South 3.9 km/h 5.6 km/h 41 % 0 mm
11:28 25.3 °C 10.4 °C 1021.2 hPa South 4.5 km/h 5.6 km/h 39 % 0 mm
11:33 25.3 °C 9.6 °C 1021.2 hPa South 1.3 km/h 3.7 km/h 37 % 0 mm
11:38 25.9 °C 10.1 °C 1021.2 hPa South 5.6 km/h 9.3 km/h 37 % 0 mm
11:43 25.9 °C 10.5 °C 1021.2 hPa SSW 1.3 km/h 5.6 km/h 38 % 0 mm
11:48 26.5 °C 10.6 °C 1021.2 hPa SSW 2.3 km/h 5.6 km/h 37 % 0 mm
11:53 26.3 °C 9.7 °C 1021.2 hPa SSW 9 km/h 11.1 km/h 35 % 0 mm
11:58 26 °C 9.3 °C 1021.2 hPa SSW 5.6 km/h 6.4 km/h 35 % 0 mm
12:03 26.2 °C 9.9 °C 1021.2 hPa SSW 2.7 km/h 7.4 km/h 36 % 0 mm
12:08 26.4 °C 9.7 °C 1020.9 hPa SSW 4.8 km/h 7.4 km/h 35 % 0 mm
12:13 26.6 °C 10.3 °C 1020.9 hPa SSW 3.1 km/h 4.8 km/h 36 % 0 mm
12:18 26.7 °C 10.3 °C 1020.9 hPa SSW 0.6 km/h 5.6 km/h 36 % 0 mm
12:23 27.4 °C 10.6 °C 1020.9 hPa SSW 7.2 km/h 9.7 km/h 35 % 0 mm
12:28 27.2 °C 10.4 °C 1020.9 hPa SSW 7.4 km/h 7.4 km/h 35 % 0 mm
12:33 27.2 °C 10.4 °C 1020.5 hPa SSW 3.1 km/h 7.4 km/h 35 % 0 mm
12:38 27.6 °C 11.2 °C 1020.5 hPa SSW 3.9 km/h 6.4 km/h 36 % 0 mm
12:43 27.9 °C 10.6 °C 1020.5 hPa SSW 2.6 km/h 9.3 km/h 34 % 0 mm
12:48 28.1 °C 11.2 °C 1020.5 hPa SSW 1.3 km/h 1.9 km/h 35 % 0 mm
12:53 28.1 °C 10.3 °C 1020.2 hPa West 8.4 km/h 18.5 km/h 33 % 0 mm
12:58 27.9 °C 10.6 °C 1020.2 hPa NW 10.1 km/h 13 km/h 34 % 0 mm
13:03 27.8 °C 10.1 °C 1020.5 hPa WNW 9.5 km/h 13 km/h 33 % 0 mm
13:08 27.9 °C 10.1 °C 1020.2 hPa WNW 1.8 km/h 7.4 km/h 33 % 0 mm
13:13 28.4 °C 10.1 °C 1020.2 hPa WNW 3.2 km/h 5.6 km/h 32 % 0 mm
13:27 29.1 °C 10.7 °C 1019.9 hPa NW 4 km/h 5.6 km/h 32 % 0 mm
13:32 29.3 °C 9.9 °C 1019.9 hPa WSW 9.5 km/h 14.5 km/h 30 % 0 mm
13:37 29.2 °C 9.8 °C 1019.9 hPa SSW 14 km/h 20.4 km/h 30 % 0 mm
13:42 28.9 °C 9.6 °C 1019.9 hPa SSW 8.7 km/h 12.9 km/h 30 % 0 mm
13:47 28.9 °C 9.6 °C 1019.9 hPa South 6.4 km/h 13 km/h 30 % 0 mm
13:52 29.1 °C 9.3 °C 1019.5 hPa SE 1 km/h 5.6 km/h 29 % 0 mm
13:57 29.3 °C 8.9 °C 1019.5 hPa SW 9.3 km/h 13 km/h 28 % 0 mm
14:02 29.1 °C 9.2 °C 1019.5 hPa West 0.5 km/h 5.6 km/h 29 % 0 mm
14:07 29.8 °C 9.3 °C 1019.5 hPa West 7.2 km/h 9.3 km/h 28 % 0 mm
14:12 29.8 °C 9.3 °C 1019.5 hPa SSW 7.2 km/h 11.3 km/h 28 % 0 mm
14:17 29.7 °C 9.7 °C 1019.5 hPa South 6.4 km/h 18.5 km/h 29 % 0 mm
14:22 29.9 °C 9.4 °C 1019.5 hPa South 3.5 km/h 14.8 km/h 28 % 0 mm
14:27 29.7 °C 8.7 °C 1019.2 hPa WSW 8.5 km/h 18.5 km/h 27 % 0 mm
14:32 29.7 °C 8.7 °C 1019.2 hPa SW 7.6 km/h 14.8 km/h 27 % 0 mm
14:37 29.7 °C 8.7 °C 1019.2 hPa SW 3.5 km/h 14.8 km/h 27 % 0 mm
14:42 29.4 °C 8.5 °C 1019.2 hPa South 10.1 km/h 11.1 km/h 27 % 0 mm
14:47 29.7 °C 8.7 °C 1019.2 hPa SE 2.3 km/h 9.7 km/h 27 % 0 mm
14:52 29.9 °C 8.9 °C 1018.8 hPa SW 9.2 km/h 14.5 km/h 27 % 0 mm
14:57 29.9 °C 8.3 °C 1018.8 hPa SSW 16.9 km/h 31.5 km/h 26 % 0 mm
15:02 29.9 °C 8.9 °C 1018.8 hPa SE 5.8 km/h 9.3 km/h 27 % 0 mm
15:07 30 °C 7.8 °C 1018.8 hPa South 6 km/h 16.7 km/h 25 % 0 mm
15:12 29.9 °C 7.8 °C 1018.8 hPa South 4.8 km/h 11.1 km/h 25 % 0 mm
15:17 30.2 °C 7.9 °C 1018.8 hPa South 1.1 km/h 4.8 km/h 25 % 0 mm
15:22 30.4 °C 7.6 °C 1018.8 hPa SW 7.6 km/h 14.8 km/h 24 % 0 mm
15:27 30.4 °C 7 °C 1018.5 hPa South 5 km/h 14.8 km/h 23 % 0 mm
15:32 30.7 °C 7.2 °C 1018.5 hPa SE 11.3 km/h 22.2 km/h 23 % 0 mm
15:37 30.8 °C 7.3 °C 1018.5 hPa SE 7.2 km/h 9.3 km/h 23 % 0 mm
15:42 30.8 °C 7.3 °C 1018.5 hPa SSE 5.5 km/h 13 km/h 23 % 0 mm
15:47 30.5 °C 7.7 °C 1018.2 hPa South 4 km/h 12.9 km/h 24 % 0 mm
15:52 30.5 °C 7.7 °C 1018.2 hPa South 10.6 km/h 17.7 km/h 24 % 0 mm
15:57 30.7 °C 7.8 °C 1018.2 hPa SSW 10.3 km/h 14.8 km/h 24 % 0 mm
16:02 30.7 °C 7.8 °C 1018.2 hPa SSW 7.4 km/h 11.3 km/h 24 % 0 mm
16:07 30.6 °C 7.1 °C 1018.2 hPa SSW 5.1 km/h 7.4 km/h 23 % 0 mm
16:13 30.6 °C 7.1 °C 1017.8 hPa SSW 5.6 km/h 5.6 km/h 23 % 0 mm
16:18 30.8 °C 7.3 °C 1017.8 hPa SSW 5.6 km/h 8 km/h 23 % 0 mm
16:23 31 °C 7.4 °C 1017.8 hPa South 8.9 km/h 11.1 km/h 23 % 0 mm
16:28 31.2 °C 7.6 °C 1017.8 hPa SSE 3.9 km/h 13 km/h 23 % 0 mm
16:33 31.2 °C 7.6 °C 1017.5 hPa South 9.7 km/h 18.5 km/h 23 % 0 mm
16:38 31.1 °C 7.5 °C 1017.5 hPa SSW 6.9 km/h 9.3 km/h 23 % 0 mm
16:43 31.3 °C 7 °C 1017.5 hPa SSW 7.1 km/h 11.1 km/h 22 % 0 mm
16:48 31.4 °C 6.5 °C 1017.5 hPa SSW 2.7 km/h 5.6 km/h 21 % 0 mm
16:53 31.7 °C 6.7 °C 1017.5 hPa South 6.8 km/h 7.4 km/h 21 % 0 mm
16:58 32 °C 6.2 °C 1017.2 hPa North 3.1 km/h 5.6 km/h 20 % 0 mm
17:03 31.8 °C 7.5 °C 1017.2 hPa South 14.8 km/h 14.8 km/h 22 % 0 mm
17:08 31.4 °C 7.1 °C 1017.2 hPa SSE 10.5 km/h 16.7 km/h 22 % 0 mm
17:13 31.3 °C 7.1 °C 1017.2 hPa SSW 11.7 km/h 12.9 km/h 22 % 0 mm
17:18 31.2 °C 6.9 °C 1017.2 hPa SSE 10.8 km/h 16.1 km/h 22 % 0 mm
17:23 31.2 °C 6.9 °C 1017.2 hPa SSE 6.3 km/h 13 km/h 22 % 0 mm
17:28 31.2 °C 6.9 °C 1017.2 hPa SSE 6.4 km/h 14.8 km/h 22 % 0 mm
17:33 31.4 °C 6.4 °C 1017.2 hPa SE 12.4 km/h 14.8 km/h 21 % 0 mm
17:38 31.2 °C 6.3 °C 1017.2 hPa SSE 12.7 km/h 18.5 km/h 21 % 0 mm
17:43 30.9 °C 6 °C 1017.2 hPa SSW 8 km/h 16.7 km/h 21 % 0 mm
17:48 30.9 °C 6 °C 1017.2 hPa SSW 0.2 km/h 5.6 km/h 21 % 0 mm
17:53 31.3 °C 6.3 °C 1017.2 hPa SSW 18.3 km/h 18.5 km/h 21 % 0 mm
17:58 31.1 °C 6.2 °C 1016.8 hPa South 9 km/h 16.7 km/h 21 % 0 mm
18:03 30.8 °C 6 °C 1017.2 hPa SSW 16.4 km/h 24.1 km/h 21 % 0 mm
18:08 30.8 °C 5.9 °C 1017.2 hPa South 11.6 km/h 16.7 km/h 21 % 0 mm
18:13 30.8 °C 6.6 °C 1016.8 hPa South 9.7 km/h 13 km/h 22 % 0 mm
18:18 30.9 °C 6 °C 1016.8 hPa South 2.7 km/h 13 km/h 21 % 0 mm
18:23 30.9 °C 6.1 °C 1016.8 hPa SSW 3.4 km/h 9.3 km/h 21 % 0 mm
18:28 30.9 °C 6 °C 1016.8 hPa SSW 18.5 km/h 22.2 km/h 21 % 0 mm
18:33 30.7 °C 5.9 °C 1016.8 hPa SSW 11.9 km/h 16.1 km/h 21 % 0 mm
18:38 30.7 °C 5.8 °C 1016.8 hPa SSW 9.3 km/h 18.5 km/h 21 % 0 mm
18:43 30.7 °C 5.8 °C 1016.8 hPa SW 12.4 km/h 19.3 km/h 21 % 0 mm
18:48 30.6 °C 5.7 °C 1016.8 hPa SW 6.8 km/h 11.1 km/h 21 % 0 mm
18:53 30.9 °C 6 °C 1016.8 hPa SE 13.8 km/h 17.7 km/h 21 % 0 mm
18:57 30.9 °C 6 °C 1016.8 hPa SSE 13.2 km/h 14.8 km/h 21 % 0 mm
19:03 30.6 °C 5.8 °C 1016.8 hPa SW 9.7 km/h 16.7 km/h 21 % 0 mm
19:07 30.6 °C 5.7 °C 1016.8 hPa SW 10.8 km/h 16.7 km/h 21 % 0 mm
19:13 30.5 °C 5 °C 1016.8 hPa SW 5.8 km/h 5.8 km/h 20 % 0 mm
19:18 30.5 °C 5 °C 1016.8 hPa SSW 9.8 km/h 13 km/h 20 % 0 mm
19:23 30.4 °C 4.9 °C 1016.8 hPa South 6.6 km/h 13 km/h 20 % 0 mm
19:28 30.3 °C 5.5 °C 1016.8 hPa South 6.1 km/h 9.3 km/h 21 % 0 mm
19:33 30 °C 5.3 °C 1016.8 hPa South 8.5 km/h 20.4 km/h 21 % 0 mm
19:38 29.8 °C 5.8 °C 1016.8 hPa South 10.8 km/h 13 km/h 22 % 0 mm
19:43 29.7 °C 5.7 °C 1016.8 hPa South 6.4 km/h 11.1 km/h 22 % 0 mm
19:48 29.6 °C 6.8 °C 1016.8 hPa South 9.7 km/h 18.5 km/h 24 % 0 mm
19:53 29.3 °C 6.7 °C 1016.8 hPa South 12.1 km/h 20.4 km/h 24 % 0 mm
19:58 29.1 °C 7.1 °C 1016.8 hPa SSE 10.9 km/h 18.5 km/h 25 % 0 mm
20:03 28.9 °C 6.9 °C 1016.8 hPa South 9.2 km/h 11.1 km/h 25 % 0 mm
20:08 28.7 °C 7.3 °C 1016.8 hPa SSE 6.3 km/h 13 km/h 26 % 0 mm
20:13 28.5 °C 7.1 °C 1016.8 hPa South 6.9 km/h 11.1 km/h 26 % 0 mm
20:18 28.2 °C 10.4 °C 1017.2 hPa South 12.6 km/h 19.3 km/h 33 % 0 mm
20:23 27.1 °C 11.9 °C 1017.2 hPa South 17.4 km/h 31.5 km/h 39 % 0 mm
20:28 26.3 °C 12.3 °C 1017.5 hPa South 10.5 km/h 18.5 km/h 42 % 0 mm
20:33 25.7 °C 12.2 °C 1017.5 hPa South 13.4 km/h 22.2 km/h 43 % 0 mm
20:38 25.4 °C 12.6 °C 1017.5 hPa South 9.8 km/h 14.8 km/h 45 % 0 mm
20:43 25.1 °C 12.3 °C 1017.5 hPa South 14.2 km/h 24.1 km/h 45 % 0 mm
20:48 24.8 °C 12.4 °C 1017.5 hPa North 10.1 km/h 14.5 km/h 46 % 0 mm
20:53 24.6 °C 12.5 °C 1017.5 hPa South 11.9 km/h 16.7 km/h 47 % 0 mm
20:58 24.3 °C 12.6 °C 1017.5 hPa SSW 16.6 km/h 25.9 km/h 48 % 0 mm
21:03 24.1 °C 12.4 °C 1017.5 hPa SSW 10.8 km/h 16.7 km/h 48 % 0 mm
21:08 23.9 °C 12.5 °C 1017.8 hPa South 8.9 km/h 12.9 km/h 49 % 0 mm
21:13 23.7 °C 12.3 °C 1017.8 hPa North 9.2 km/h 18.5 km/h 49 % 0 mm
21:18 23.4 °C 12.1 °C 1017.8 hPa South 16.4 km/h 22.2 km/h 49 % 0 mm
21:23 23.2 °C 12.2 °C 1017.8 hPa South 11.3 km/h 16.7 km/h 50 % 0 mm
21:28 23.1 °C 12.1 °C 1017.8 hPa South 8.7 km/h 16.7 km/h 50 % 0 mm
21:33 22.8 °C 11.9 °C 1017.8 hPa North 12.2 km/h 22.2 km/h 50 % 0 mm
21:38 22.6 °C 11.7 °C 1017.8 hPa SSW 8.9 km/h 16.1 km/h 50 % 0 mm
21:43 22.4 °C 11.8 °C 1017.8 hPa SSW 8.4 km/h 13 km/h 51 % 0 mm
21:48 22.2 °C 11.6 °C 1017.8 hPa SSW 9.5 km/h 14.8 km/h 51 % 0 mm
21:53 22.1 °C 11.2 °C 1018.2 hPa SSW 11.7 km/h 16.7 km/h 50 % 0 mm
21:58 22.1 °C 11.2 °C 1018.2 hPa SSW 7.7 km/h 13 km/h 50 % 0 mm
22:03 22 °C 11.1 °C 1018.2 hPa SSW 8 km/h 13 km/h 50 % 0 mm
22:08 21.9 °C 11 °C 1018.5 hPa SSW 11.1 km/h 18.5 km/h 50 % 0 mm
22:13 21.8 °C 10.9 °C 1018.5 hPa SSW 9.2 km/h 13 km/h 50 % 0 mm
22:18 21.6 °C 10.7 °C 1018.5 hPa SSW 11.1 km/h 14.8 km/h 50 % 0 mm
22:23 21.4 °C 10.9 °C 1018.5 hPa SSW 8.7 km/h 14.8 km/h 51 % 0 mm
22:28 21.3 °C 10.7 °C 1018.5 hPa SSW 7.6 km/h 9.3 km/h 51 % 0 mm
22:33 21.2 °C 10.9 °C 1018.5 hPa SSW 12.1 km/h 18.5 km/h 52 % 0 mm
22:38 21.1 °C 11.1 °C 1018.5 hPa SSW 7.7 km/h 13 km/h 53 % 0 mm
22:43 20.8 °C 11.1 °C 1018.5 hPa SSW 8.7 km/h 13 km/h 54 % 0 mm
22:48 20.6 °C 11.2 °C 1018.5 hPa SSW 10.5 km/h 18.5 km/h 55 % 0 mm
22:53 20.4 °C 11.4 °C 1018.5 hPa SSW 6 km/h 9.3 km/h 56 % 0 mm
22:58 20.2 °C 11.4 °C 1018.5 hPa South 9 km/h 13 km/h 57 % 0 mm
23:03 20.1 °C 11.6 °C 1018.5 hPa South 7.9 km/h 11.1 km/h 58 % 0 mm
23:08 19.8 °C 11.6 °C 1018.5 hPa South 9 km/h 14.8 km/h 59 % 0 mm
23:13 19.6 °C 11.6 °C 1018.5 hPa South 8.4 km/h 13 km/h 60 % 0 mm
23:18 19.3 °C 11.6 °C 1018.5 hPa South 7.6 km/h 12.9 km/h 61 % 0 mm
23:23 19.1 °C 11.7 °C 1018.5 hPa North 6.8 km/h 9.3 km/h 62 % 0 mm
23:28 18.9 °C 11.7 °C 1018.5 hPa South 5.6 km/h 11.1 km/h 63 % 0 mm
23:33 18.7 °C 11.8 °C 1018.5 hPa South 6.1 km/h 7.4 km/h 64 % 0 mm
23:38 18.6 °C 11.8 °C 1018.5 hPa South 8.2 km/h 11.1 km/h 65 % 0 mm
23:43 18.3 °C 11.9 °C 1018.5 hPa North 9.3 km/h 13 km/h 66 % 0 mm
23:48 18.2 °C 12 °C 1018.5 hPa South 6.3 km/h 11.1 km/h 67 % 0 mm
23:53 18.1 °C 11.9 °C 1018.5 hPa South 7.9 km/h 11.1 km/h 67 % 0 mm
23:58 18 °C 11.8 °C 1018.5 hPa South 10.5 km/h 13 km/h 67 % 0 mm
Ararat Weather
Compliments of Weather Underground - 2.5 mb
Click here to send mail.


ABOUT

Live weather data from Ararat, Victoria, Australia, 3377
Data uploaded from Cumulus every 5 minutes to Weather Underground.
This site then downloads the raw data for formatting and display.
Metric and imperial data can be displayed. Graphs and historical data available.
Includes Sun and Moon times and rain image live from BOM.

Check out Ararat Weather on Facebook, Twitter and Google +

Help support ongoing costs by checking out the ads





Follow @AraratWeather